Airport View

Enter AWOS ICAO identifier for current METAR.

ex. KFNL

PAGH 080456Z AUTO 00000KT 10SM -RA FEW031 OVC044 11/10 A3004 RMK AO2 SLP177 P0002 T01060100

8 Jul 2020 05:13

Frequency: 118.525

Phone: 907-437-2024

Other Area AWOS: PAFM - PASK - PAHL - PAIK

TAF PAOT 072335Z 0800/0824 26006KT P6SM VCSH OVC015 FM080900 VRB06KT P6SM -RA OVC015 FM081800 VRB06KT P6SM VCSH OVC015